createdAt,value
2022-12-04T00:00:09.298Z,954.88
2022-12-04T00:01:11.285Z,954.87
2022-12-04T00:02:13.289Z,954.85
2022-12-04T00:03:15.374Z,954.81
2022-12-04T00:04:17.334Z,954.79
2022-12-04T00:05:19.294Z,954.78
2022-12-04T00:06:21.301Z,954.78
2022-12-04T00:07:23.305Z,954.8
2022-12-04T00:08:25.372Z,954.81
2022-12-04T00:09:27.296Z,954.8
2022-12-04T00:10:29.295Z,954.82
2022-12-04T00:11:31.294Z,954.71
2022-12-04T00:12:33.297Z,954.71
2022-12-04T00:13:35.325Z,954.72
2022-12-04T00:15:00.508Z,954.7
2022-12-04T00:15:39.296Z,954.68
2022-12-04T00:16:41.361Z,954.68
2022-12-04T00:17:43.300Z,954.65
2022-12-04T00:18:45.323Z,954.65
2022-12-04T00:19:47.326Z,954.64
2022-12-04T00:20:49.303Z,954.65
2022-12-04T00:21:51.316Z,954.64
2022-12-04T00:25:49.514Z,954.71
2022-12-04T00:26:49.531Z,954.72
2022-12-04T00:27:49.495Z,954.68
2022-12-04T00:28:49.490Z,954.66
2022-12-04T00:29:49.485Z,954.65
2022-12-04T00:30:49.489Z,954.64
2022-12-04T00:31:49.580Z,954.64
2022-12-04T00:32:49.486Z,954.63
2022-12-04T00:33:49.530Z,954.66
2022-12-04T00:34:49.489Z,954.68
2022-12-04T00:35:49.487Z,954.64
2022-12-04T00:36:49.489Z,954.68
2022-12-04T00:37:49.498Z,954.7
2022-12-04T00:38:49.513Z,954.65
2022-12-04T00:39:49.538Z,954.69
2022-12-04T00:41:51.385Z,954.74
2022-12-04T00:42:53.385Z,954.74
2022-12-04T00:43:55.388Z,954.73
2022-12-04T00:44:58.459Z,954.76
2022-12-04T00:46:01.456Z,954.73
2022-12-04T00:47:03.397Z,954.74
2022-12-04T00:48:05.393Z,954.75
2022-12-04T00:49:07.421Z,954.73
2022-12-04T00:50:09.424Z,954.76
2022-12-04T00:51:11.394Z,954.74
2022-12-04T00:52:13.395Z,954.79
2022-12-04T00:53:15.437Z,954.76
2022-12-04T00:54:17.431Z,954.75
2022-12-04T00:55:19.390Z,954.75
2022-12-04T00:56:21.395Z,954.76
2022-12-04T00:57:23.405Z,954.72
2022-12-04T00:58:25.395Z,954.75
2022-12-04T00:59:27.395Z,954.7
2022-12-04T01:00:49.617Z,954.71
2022-12-04T01:01:49.539Z,954.73
2022-12-04T01:02:49.536Z,954.71
2022-12-04T01:03:49.506Z,954.68
2022-12-04T01:04:49.518Z,954.67
2022-12-04T01:05:49.501Z,954.71
2022-12-04T01:06:49.530Z,954.73
2022-12-04T01:07:49.627Z,954.73
2022-12-04T01:08:49.525Z,954.74
2022-12-04T01:09:49.504Z,954.75
2022-12-04T01:10:49.616Z,954.73
2022-12-04T01:11:51.414Z,954.75
2022-12-04T01:12:53.442Z,954.75
2022-12-04T01:13:55.466Z,954.75
2022-12-04T01:14:58.424Z,954.74
2022-12-04T01:16:01.520Z,954.73
2022-12-04T01:17:04.420Z,954.67
2022-12-04T01:18:06.416Z,954.67
2022-12-04T01:19:08.851Z,954.67
2022-12-04T01:20:11.407Z,954.65
2022-12-04T01:21:13.408Z,954.66
2022-12-04T01:22:15.412Z,954.65
2022-12-04T01:23:17.411Z,954.61
2022-12-04T01:25:21.422Z,954.57
2022-12-04T01:26:23.436Z,954.58
2022-12-04T01:27:25.415Z,954.6
2022-12-04T01:28:27.420Z,954.54
2022-12-04T01:29:30.469Z,954.5
2022-12-04T01:30:32.413Z,954.54
2022-12-04T01:31:34.477Z,954.55
2022-12-04T01:32:36.416Z,954.49
2022-12-04T01:33:38.413Z,954.47
2022-12-04T01:34:40.451Z,954.45
2022-12-04T01:35:43.416Z,954.41
2022-12-04T01:36:45.412Z,954.4
2022-12-04T01:37:47.414Z,954.35
2022-12-04T01:38:49.435Z,954.32
2022-12-04T01:39:51.453Z,954.34
2022-12-04T01:40:53.409Z,954.32
2022-12-04T01:41:56.420Z,954.31
2022-12-04T01:42:58.493Z,954.24
2022-12-04T01:44:02.423Z,954.29
2022-12-04T01:45:04.493Z,954.3
2022-12-04T01:46:06.476Z,954.29
2022-12-04T01:47:08.428Z,954.29
2022-12-04T01:48:11.448Z,954.3
2022-12-04T01:49:13.437Z,954.29
2022-12-04T01:50:15.426Z,954.31
2022-12-04T01:51:17.423Z,954.32
2022-12-04T01:52:19.436Z,954.37
2022-12-04T01:53:21.426Z,954.34
2022-12-04T01:54:23.454Z,954.41
2022-12-04T01:55:25.425Z,954.42
2022-12-04T01:56:27.430Z,954.35
2022-12-04T01:57:29.429Z,954.37
2022-12-04T01:58:31.441Z,954.32
2022-12-04T01:59:34.428Z,954.33
2022-12-04T02:00:36.431Z,954.37
2022-12-04T02:01:38.555Z,954.38
2022-12-04T02:02:40.538Z,954.33
2022-12-04T02:03:42.437Z,954.31
2022-12-04T02:04:44.426Z,954.34
2022-12-04T02:05:46.473Z,954.33
2022-12-04T02:06:48.432Z,954.3
2022-12-04T02:07:51.515Z,954.26
2022-12-04T02:08:53.464Z,954.19
2022-12-04T02:09:55.830Z,954.22
2022-12-04T02:10:58.441Z,954.2
2022-12-04T02:12:01.467Z,954.21
2022-12-04T02:13:03.430Z,954.15
2022-12-04T02:14:05.492Z,954.19
2022-12-04T02:15:07.433Z,954.11
2022-12-04T02:16:49.642Z,954.09
2022-12-04T02:17:49.541Z,954.07
2022-12-04T02:18:49.543Z,954.04
2022-12-04T02:19:49.582Z,954.07
2022-12-04T02:20:49.636Z,954.06
2022-12-04T02:21:49.559Z,954.06
2022-12-04T02:22:49.566Z,954.07
2022-12-04T02:23:49.546Z,954.1
2022-12-04T02:24:50.431Z,954.1
2022-12-04T02:25:49.581Z,954.1
2022-12-04T02:26:49.586Z,954.1
2022-12-04T02:27:49.549Z,954.12
2022-12-04T02:28:49.552Z,954.12
2022-12-04T02:29:49.554Z,954.14
2022-12-04T02:30:49.594Z,954.1
2022-12-04T02:32:49.552Z,954.13
2022-12-04T02:33:49.748Z,954.19
2022-12-04T02:34:49.553Z,954.23
2022-12-04T02:35:49.652Z,954.28
2022-12-04T02:36:51.448Z,954.28
2022-12-04T02:37:53.510Z,954.26
2022-12-04T02:39:58.749Z,954.26
2022-12-04T02:41:01.497Z,954.28
2022-12-04T02:42:03.448Z,954.24
2022-12-04T02:43:05.454Z,954.24
2022-12-04T02:44:07.494Z,954.26
2022-12-04T02:45:09.505Z,954.28
2022-12-04T02:46:11.580Z,954.23
2022-12-04T02:47:13.457Z,954.31
2022-12-04T02:48:15.460Z,954.27
2022-12-04T02:49:17.451Z,954.23
2022-12-04T02:50:19.454Z,954.25
2022-12-04T02:51:21.452Z,954.23
2022-12-04T02:52:23.459Z,954.26
2022-12-04T02:53:26.491Z,954.21
2022-12-04T02:54:28.520Z,954.19
2022-12-04T02:55:30.457Z,954.15
2022-12-04T02:56:32.462Z,954.13
2022-12-04T02:57:34.491Z,954.18
2022-12-04T02:58:36.503Z,954.15
2022-12-04T02:59:38.463Z,954.16
2022-12-04T03:00:40.493Z,954.16
2022-12-04T03:01:42.534Z,954.2
2022-12-04T03:02:44.567Z,954.21
2022-12-04T03:03:46.498Z,954.25
2022-12-04T03:04:48.465Z,954.21
2022-12-04T03:05:50.504Z,954.24
2022-12-04T03:06:52.463Z,954.2
2022-12-04T03:07:54.529Z,954.22
2022-12-04T03:08:56.490Z,954.23
2022-12-04T03:09:58.601Z,954.25
2022-12-04T03:11:02.460Z,954.34
2022-12-04T03:12:05.471Z,954.31
2022-12-04T03:13:08.521Z,954.25
2022-12-04T03:14:10.532Z,954.31
2022-12-04T03:15:12.465Z,954.33
2022-12-04T03:16:14.569Z,954.34
2022-12-04T03:17:16.471Z,954.39
2022-12-04T03:18:18.505Z,954.41
2022-12-04T03:19:20.476Z,954.36
2022-12-04T03:20:22.482Z,954.37
2022-12-04T03:21:24.469Z,954.35
2022-12-04T03:22:26.475Z,954.37
2022-12-04T03:23:28.468Z,954.33
2022-12-04T03:24:30.469Z,954.32
2022-12-04T03:25:49.591Z,954.4
2022-12-04T03:26:49.582Z,954.39
2022-12-04T03:27:49.589Z,954.35
2022-12-04T03:28:49.622Z,954.31
2022-12-04T03:29:49.591Z,954.31
2022-12-04T03:30:49.666Z,954.32
2022-12-04T03:31:49.638Z,954.3
2022-12-04T03:32:49.621Z,954.27
2022-12-04T03:33:49.579Z,954.28
2022-12-04T03:34:50.476Z,954.26
2022-12-04T03:35:52.481Z,954.35
2022-12-04T03:36:54.482Z,954.23
2022-12-04T03:37:56.479Z,954.26
2022-12-04T03:39:01.132Z,954.29
2022-12-04T03:40:02.508Z,954.27
2022-12-04T03:41:04.481Z,954.25
2022-12-04T03:42:06.495Z,954.27
2022-12-04T03:43:08.480Z,954.32
2022-12-04T03:44:10.545Z,954.29
2022-12-04T03:45:12.470Z,954.28
2022-12-04T03:46:14.485Z,954.31
2022-12-04T03:47:16.488Z,954.25
2022-12-04T03:48:22.863Z,954.24
2022-12-04T03:49:20.493Z,954.3
2022-12-04T03:50:22.482Z,954.27
2022-12-04T03:51:24.486Z,954.28
2022-12-04T03:52:26.487Z,954.27
2022-12-04T03:53:28.486Z,954.26
2022-12-04T03:54:30.498Z,954.33
2022-12-04T03:55:32.487Z,954.3
2022-12-04T03:56:34.490Z,954.26
2022-12-04T03:57:36.492Z,954.24
2022-12-04T03:58:39.500Z,954.28
2022-12-04T03:59:41.572Z,954.26
2022-12-04T04:00:43.507Z,954.3
2022-12-04T04:01:45.576Z,954.3
2022-12-04T04:02:47.605Z,954.28
2022-12-04T04:03:49.495Z,954.3
2022-12-04T04:04:51.688Z,954.26
2022-12-04T04:05:54.571Z,954.16
2022-12-04T04:06:56.502Z,954.19
2022-12-04T04:07:58.557Z,954.24
2022-12-04T04:09:01.494Z,954.12
2022-12-04T04:10:03.511Z,954.16
2022-12-04T04:11:05.507Z,954.2
2022-12-04T04:12:07.504Z,954.2
2022-12-04T04:13:09.499Z,954.1
2022-12-04T04:14:11.508Z,954.12
2022-12-04T04:15:13.516Z,954.07
2022-12-04T04:16:15.558Z,954
2022-12-04T04:17:17.504Z,954.05
2022-12-04T04:18:19.505Z,954.07
2022-12-04T04:19:21.507Z,954.1
2022-12-04T04:20:23.510Z,954.07
2022-12-04T04:21:25.511Z,954.04
2022-12-04T04:22:27.506Z,954.07
2022-12-04T04:23:29.599Z,954.03
2022-12-04T04:24:31.513Z,954.09
2022-12-04T04:25:33.516Z,954.07
2022-12-04T04:26:36.509Z,954.07
2022-12-04T04:27:38.508Z,954.09
2022-12-04T04:28:40.516Z,954.03
2022-12-04T04:29:42.927Z,954.05
2022-12-04T04:30:44.571Z,954.03
2022-12-04T04:31:46.515Z,954.04
2022-12-04T04:32:48.518Z,954.01
2022-12-04T04:33:50.509Z,953.98
2022-12-04T04:34:52.516Z,954.02
2022-12-04T04:35:54.558Z,953.98
2022-12-04T04:36:56.511Z,953.96
2022-12-04T04:37:58.533Z,953.99
2022-12-04T04:39:01.516Z,953.97
2022-12-04T04:40:03.508Z,953.9
2022-12-04T04:41:05.508Z,953.9
2022-12-04T04:42:07.540Z,953.89
2022-12-04T04:43:09.521Z,953.89
2022-12-04T04:44:11.525Z,953.87
2022-12-04T04:45:13.508Z,953.87
2022-12-04T04:46:15.633Z,953.84
2022-12-04T04:47:17.533Z,953.77
2022-12-04T04:48:19.519Z,953.84
2022-12-04T04:49:21.565Z,953.8
2022-12-04T04:50:23.520Z,953.85
2022-12-04T04:51:25.872Z,953.84
2022-12-04T04:52:27.520Z,953.89
2022-12-04T04:53:29.586Z,953.88
2022-12-04T04:54:31.541Z,953.91
2022-12-04T04:55:33.520Z,953.88
2022-12-04T04:57:37.558Z,953.85
2022-12-04T04:58:39.520Z,953.82
2022-12-04T04:59:41.534Z,953.79
2022-12-04T05:00:43.521Z,953.81
2022-12-04T05:01:45.605Z,953.76
2022-12-04T05:02:47.565Z,953.79
2022-12-04T05:03:49.741Z,953.84
2022-12-04T05:04:51.547Z,953.83
2022-12-04T05:05:53.532Z,953.84
2022-12-04T05:06:55.530Z,953.83
2022-12-04T05:07:58.599Z,953.78
2022-12-04T05:09:01.549Z,953.81
2022-12-04T05:10:03.549Z,953.85
2022-12-04T05:11:05.538Z,953.82
2022-12-04T05:12:07.530Z,953.87
2022-12-04T05:13:09.536Z,953.87
2022-12-04T05:14:11.536Z,953.87
2022-12-04T05:15:13.584Z,953.84
2022-12-04T05:16:15.668Z,953.85
2022-12-04T05:17:17.565Z,953.85
2022-12-04T05:18:19.544Z,953.89
2022-12-04T05:19:21.538Z,953.89
2022-12-04T05:20:23.713Z,953.93
2022-12-04T05:21:25.542Z,953.89
2022-12-04T05:22:27.573Z,953.91
2022-12-04T05:23:29.640Z,953.93
2022-12-04T05:24:31.538Z,953.91
2022-12-04T05:25:33.589Z,953.94
2022-12-04T05:26:35.539Z,953.92
2022-12-04T05:27:37.550Z,953.89
2022-12-04T05:28:39.558Z,953.9
2022-12-04T05:29:41.546Z,953.91
2022-12-04T05:30:43.574Z,953.92
2022-12-04T05:31:45.656Z,953.89
2022-12-04T05:32:47.556Z,953.9
2022-12-04T05:33:49.557Z,953.93
2022-12-04T05:34:51.552Z,953.94
2022-12-04T05:35:53.598Z,953.92
2022-12-04T05:36:55.552Z,953.88
2022-12-04T05:37:58.595Z,953.9
2022-12-04T05:39:01.553Z,953.85
2022-12-04T05:40:03.563Z,953.85
2022-12-04T05:41:05.567Z,953.89
2022-12-04T05:42:07.547Z,953.89
2022-12-04T05:43:09.554Z,953.87
2022-12-04T05:44:12.559Z,953.89
2022-12-04T05:45:14.549Z,953.88
2022-12-04T05:46:16.625Z,953.86
2022-12-04T05:47:18.560Z,953.86
2022-12-04T05:48:20.560Z,953.83
2022-12-04T05:49:22.559Z,953.87
2022-12-04T05:51:26.612Z,953.9
2022-12-04T05:52:28.579Z,953.88
2022-12-04T05:53:30.563Z,953.83
2022-12-04T05:54:32.578Z,953.85
2022-12-04T05:55:34.562Z,953.85
2022-12-04T05:56:36.635Z,953.83
2022-12-04T05:57:38.566Z,953.86
2022-12-04T05:58:40.567Z,953.84
2022-12-04T05:59:42.563Z,953.85
2022-12-04T06:00:44.562Z,953.84
2022-12-04T06:01:46.642Z,953.82
2022-12-04T06:02:48.617Z,953.86
2022-12-04T06:03:50.569Z,953.86
2022-12-04T06:04:52.617Z,953.83
2022-12-04T06:05:54.568Z,953.87
2022-12-04T06:06:56.612Z,953.88
2022-12-04T06:07:58.714Z,953.89
2022-12-04T06:09:01.591Z,953.95
2022-12-04T06:10:03.577Z,954
2022-12-04T06:11:05.642Z,954.02
2022-12-04T06:12:07.782Z,953.99
2022-12-04T06:13:09.572Z,954.03
2022-12-04T06:14:11.583Z,954.02
2022-12-04T06:15:13.583Z,954.01
2022-12-04T06:16:15.655Z,954.05
2022-12-04T06:17:17.614Z,954.05
2022-12-04T06:18:19.578Z,954.09
2022-12-04T06:19:21.647Z,954.09
2022-12-04T06:20:23.713Z,954.11
2022-12-04T06:21:25.574Z,954.14
2022-12-04T06:22:27.615Z,954.12
2022-12-04T06:23:29.709Z,954.16
2022-12-04T06:24:31.575Z,954.14
2022-12-04T06:25:33.570Z,954.12
2022-12-04T06:26:35.579Z,954.14
2022-12-04T06:27:37.621Z,954.13
2022-12-04T06:28:39.591Z,954.17
2022-12-04T06:29:41.592Z,954.17
2022-12-04T06:30:43.589Z,954.12
2022-12-04T06:31:45.611Z,954.12
2022-12-04T06:32:47.586Z,954.14
2022-12-04T06:33:49.593Z,954.15
2022-12-04T06:34:51.665Z,954.12
2022-12-04T06:35:53.585Z,954.12
2022-12-04T06:36:55.586Z,954.15
2022-12-04T06:37:58.602Z,954.12
2022-12-04T06:39:01.592Z,954.09
2022-12-04T06:40:03.605Z,954.09
2022-12-04T06:41:06.602Z,954.02
2022-12-04T06:42:08.590Z,954.01
2022-12-04T06:43:10.674Z,954.06
2022-12-04T06:44:12.628Z,954.03
2022-12-04T06:45:14.598Z,954.04
2022-12-04T06:46:17.633Z,954.08
2022-12-04T06:47:19.616Z,954.08
2022-12-04T06:48:21.599Z,954.11
2022-12-04T06:50:25.595Z,954.13
2022-12-04T06:51:27.604Z,954.16
2022-12-04T06:53:31.613Z,954.19
2022-12-04T06:54:33.597Z,954.14
2022-12-04T06:55:35.597Z,954.19
2022-12-04T06:56:37.603Z,954.22
2022-12-04T06:57:39.601Z,954.27
2022-12-04T06:58:41.649Z,954.27
2022-12-04T06:59:44.599Z,954.22
2022-12-04T07:00:46.661Z,954.24
2022-12-04T07:01:48.698Z,954.24
2022-12-04T07:02:50.702Z,954.21
2022-12-04T07:03:52.608Z,954.21
2022-12-04T07:04:54.651Z,954.18
2022-12-04T07:05:56.613Z,954.25
2022-12-04T07:07:01.140Z,954.2
2022-12-04T07:08:02.669Z,954.22
2022-12-04T07:09:04.625Z,954.26
2022-12-04T07:10:06.613Z,954.23
2022-12-04T07:11:08.623Z,954.19
2022-12-04T07:12:10.609Z,954.26
2022-12-04T07:13:12.607Z,954.3
2022-12-04T07:14:14.622Z,954.25
2022-12-04T07:15:16.636Z,954.31
2022-12-04T07:16:18.672Z,954.31
2022-12-04T07:17:20.611Z,954.29
2022-12-04T07:18:22.610Z,954.31
2022-12-04T07:19:24.612Z,954.29
2022-12-04T07:20:26.605Z,954.32
2022-12-04T07:21:28.613Z,954.33
2022-12-04T07:22:30.629Z,954.24
2022-12-04T07:23:32.627Z,954.29
2022-12-04T07:24:34.623Z,954.27
2022-12-04T07:25:36.614Z,954.26
2022-12-04T07:26:38.603Z,954.31
2022-12-04T07:27:40.626Z,954.33
2022-12-04T07:28:42.608Z,954.34
2022-12-04T07:29:45.615Z,954.35
2022-12-04T07:30:47.638Z,954.35
2022-12-04T07:31:49.695Z,954.35
2022-12-04T07:32:51.668Z,954.3
2022-12-04T07:33:53.618Z,954.36
2022-12-04T07:34:55.618Z,954.34
2022-12-04T07:35:58.642Z,954.32
2022-12-04T07:37:01.631Z,954.41
2022-12-04T07:38:04.662Z,954.39
2022-12-04T07:39:06.617Z,954.38
2022-12-04T07:40:08.631Z,954.45
2022-12-04T07:41:10.631Z,954.47
2022-12-04T07:42:27.851Z,954.49
2022-12-04T07:43:15.918Z,954.53
2022-12-04T07:44:17.628Z,954.55
2022-12-04T07:45:19.629Z,954.52
2022-12-04T07:46:21.710Z,954.56
2022-12-04T07:47:23.834Z,954.48
2022-12-04T07:48:31.753Z,954.49
2022-12-04T07:49:27.642Z,954.5
2022-12-04T07:50:29.699Z,954.48
2022-12-04T07:51:31.636Z,954.43
2022-12-04T07:52:33.628Z,954.44
2022-12-04T07:53:35.646Z,954.44
2022-12-04T07:54:37.667Z,954.44
2022-12-04T07:55:39.636Z,954.38
2022-12-04T07:56:41.634Z,954.39
2022-12-04T07:57:43.633Z,954.38
2022-12-04T07:58:45.638Z,954.34
2022-12-04T07:59:47.933Z,954.34
2022-12-04T08:00:49.642Z,954.31
2022-12-04T08:01:51.718Z,954.29
2022-12-04T08:02:53.900Z,954.25
2022-12-04T08:03:55.674Z,954.23
2022-12-04T08:04:58.778Z,954.26
2022-12-04T08:06:01.669Z,954.29
2022-12-04T08:07:03.638Z,954.25
2022-12-04T08:08:05.784Z,954.24
2022-12-04T08:09:10.121Z,954.25
2022-12-04T08:10:10.669Z,954.23
2022-12-04T08:11:12.645Z,954.27
2022-12-04T08:12:14.646Z,954.21
2022-12-04T08:13:16.662Z,954.19
2022-12-04T08:14:18.689Z,954.24
2022-12-04T08:15:20.655Z,954.24
2022-12-04T08:16:22.752Z,954.24
2022-12-04T08:17:24.759Z,954.25
2022-12-04T08:18:26.702Z,954.21
2022-12-04T08:19:28.674Z,954.21
2022-12-04T08:20:30.667Z,954.21
2022-12-04T08:21:32.654Z,954.16
2022-12-04T08:22:34.650Z,954.18
2022-12-04T08:23:36.654Z,954.16
2022-12-04T08:24:38.653Z,954.15
2022-12-04T08:25:40.698Z,954.12
2022-12-04T08:26:43.675Z,954.16
2022-12-04T08:27:47.554Z,954.16
2022-12-04T08:28:47.651Z,954.2
2022-12-04T08:29:49.653Z,954.22
2022-12-04T08:30:51.749Z,954.19
2022-12-04T08:31:53.665Z,954.19
2022-12-04T08:32:55.656Z,954.16
2022-12-04T08:33:58.678Z,954.13
2022-12-04T08:35:01.678Z,954.13
2022-12-04T08:36:03.708Z,954.1
2022-12-04T08:37:05.661Z,954.11
2022-12-04T08:38:07.667Z,954.03
2022-12-04T08:39:09.662Z,954.01
2022-12-04T08:40:11.662Z,954
2022-12-04T08:41:13.689Z,954.03
2022-12-04T08:42:15.659Z,954.01
2022-12-04T08:43:17.661Z,954.02
2022-12-04T08:44:19.663Z,954.02
2022-12-04T08:45:21.662Z,954.05
2022-12-04T08:46:23.745Z,954.05
2022-12-04T08:47:25.664Z,954.06
2022-12-04T08:48:27.685Z,954.09
2022-12-04T08:49:29.765Z,954.07
2022-12-04T08:50:31.741Z,954.04
2022-12-04T08:51:33.665Z,954.04
2022-12-04T08:52:35.674Z,954.1
2022-12-04T08:53:37.676Z,954.09
2022-12-04T08:54:39.685Z,954.1
2022-12-04T08:55:41.868Z,954.12
2022-12-04T08:56:43.680Z,954.13
2022-12-04T08:57:45.670Z,954.12
2022-12-04T08:58:47.672Z,954.13
2022-12-04T08:59:49.674Z,954.1
2022-12-04T09:01:53.812Z,954.14
2022-12-04T09:02:55.683Z,954.12
2022-12-04T09:03:58.801Z,954.13
2022-12-04T09:05:01.678Z,954.16
2022-12-04T09:06:03.723Z,954.14
2022-12-04T09:07:05.716Z,954.13
2022-12-04T09:08:07.825Z,954.14
2022-12-04T09:09:09.725Z,954.11
2022-12-04T09:10:11.721Z,954.13
2022-12-04T09:11:13.711Z,954.16
2022-12-04T09:12:15.685Z,954.18
2022-12-04T09:13:17.687Z,954.19
2022-12-04T09:14:19.743Z,954.2
2022-12-04T09:15:21.685Z,954.26
2022-12-04T09:16:23.847Z,954.18
2022-12-04T09:17:25.671Z,954.23
2022-12-04T09:18:27.720Z,954.22
2022-12-04T09:19:29.730Z,954.26
2022-12-04T09:20:31.692Z,954.25
2022-12-04T09:21:33.690Z,954.2
2022-12-04T09:22:57.939Z,954.18
2022-12-04T09:23:37.682Z,954.22
2022-12-04T09:24:39.734Z,954.22
2022-12-04T09:25:41.694Z,954.26
2022-12-04T09:26:43.686Z,954.26
2022-12-04T09:27:45.697Z,954.23
2022-12-04T09:28:47.705Z,954.24
2022-12-04T09:29:49.780Z,954.25
2022-12-04T09:30:51.749Z,954.26
2022-12-04T09:31:53.693Z,954.25
2022-12-04T09:32:55.698Z,954.23
2022-12-04T09:33:58.716Z,954.19
2022-12-04T09:35:01.737Z,954.2
2022-12-04T09:36:03.682Z,954.23
2022-12-04T09:37:05.696Z,954.22
2022-12-04T09:38:07.693Z,954.22
2022-12-04T09:39:09.701Z,954.26
2022-12-04T09:40:11.723Z,954.24
2022-12-04T09:41:13.696Z,954.23
2022-12-04T09:42:15.702Z,954.18
2022-12-04T09:43:17.705Z,954.21
2022-12-04T09:44:19.729Z,954.13
2022-12-04T09:45:21.719Z,954.17
2022-12-04T09:46:23.780Z,954.08
2022-12-04T09:47:25.722Z,954.12
2022-12-04T09:48:27.708Z,954.11
2022-12-04T09:49:29.743Z,954.15
2022-12-04T09:50:31.764Z,954.07
2022-12-04T09:51:34.709Z,954.04
2022-12-04T09:52:36.706Z,954.04
2022-12-04T09:53:38.713Z,954.11
2022-12-04T09:54:40.708Z,954.12
2022-12-04T09:55:42.712Z,954.13
2022-12-04T09:56:44.702Z,954.19
2022-12-04T09:57:46.713Z,954.18
2022-12-04T09:58:48.709Z,954.19
2022-12-04T09:59:50.715Z,954.15
2022-12-04T10:00:53.764Z,954.17
2022-12-04T10:01:55.709Z,954.21
2022-12-04T10:02:58.862Z,954.22
2022-12-04T10:04:06.044Z,954.22
2022-12-04T10:05:03.739Z,954.18
2022-12-04T10:06:05.735Z,954.2
2022-12-04T10:07:08.709Z,954.27
2022-12-04T10:08:10.782Z,954.24
2022-12-04T10:09:12.717Z,954.31
2022-12-04T10:10:15.765Z,954.36
2022-12-04T10:11:17.732Z,954.31
2022-12-04T10:12:19.732Z,954.36
2022-12-04T10:13:21.717Z,954.34
2022-12-04T10:14:23.769Z,954.3
2022-12-04T10:15:26.807Z,954.33
2022-12-04T10:16:28.797Z,954.37
2022-12-04T10:17:32.976Z,954.32
2022-12-04T10:18:32.735Z,954.33
2022-12-04T10:19:34.721Z,954.35
2022-12-04T10:20:36.725Z,954.43
2022-12-04T10:21:38.750Z,954.43
2022-12-04T10:22:40.727Z,954.46
2022-12-04T10:23:42.725Z,954.49
2022-12-04T10:24:44.729Z,954.41
2022-12-04T10:25:46.788Z,954.37
2022-12-04T10:26:48.783Z,954.34
2022-12-04T10:27:50.759Z,954.35
2022-12-04T10:28:55.475Z,954.33
2022-12-04T10:30:56.813Z,954.35
2022-12-04T10:32:02.770Z,954.37
2022-12-04T10:33:04.747Z,954.3
2022-12-04T10:34:06.731Z,954.28
2022-12-04T10:35:49.830Z,954.2
2022-12-04T10:36:49.839Z,954.18
2022-12-04T10:37:49.881Z,954.23
2022-12-04T10:38:49.840Z,954.16
2022-12-04T10:39:49.858Z,954.18
2022-12-04T10:40:49.878Z,954.11
2022-12-04T10:41:49.849Z,954.1
2022-12-04T10:42:49.850Z,954.07
2022-12-04T10:43:49.845Z,954.02
2022-12-04T10:44:49.899Z,953.98
2022-12-04T10:45:49.887Z,953.99
2022-12-04T10:46:49.885Z,954
2022-12-04T10:47:49.851Z,954.05
2022-12-04T10:48:49.856Z,954.04
2022-12-04T10:49:49.848Z,953.97
2022-12-04T10:50:49.891Z,954
2022-12-04T10:51:49.854Z,954
2022-12-04T10:52:49.856Z,954
2022-12-04T10:53:49.875Z,953.94
2022-12-04T10:54:49.896Z,953.99
2022-12-04T10:55:50.796Z,953.99
2022-12-04T10:56:52.742Z,953.98
2022-12-04T10:57:54.752Z,953.89
2022-12-04T10:58:58.773Z,953.93
2022-12-04T11:00:01.794Z,953.95
2022-12-04T11:01:03.805Z,953.99
2022-12-04T11:02:07.247Z,953.86
2022-12-04T11:03:07.840Z,953.85
2022-12-04T11:04:09.756Z,953.88
2022-12-04T11:05:11.770Z,953.87
2022-12-04T11:06:13.805Z,953.86
2022-12-04T11:07:15.754Z,953.83
2022-12-04T11:08:19.920Z,953.85
2022-12-04T11:09:19.800Z,953.84
2022-12-04T11:10:21.751Z,953.83
2022-12-04T11:11:23.766Z,953.84
2022-12-04T11:12:26.757Z,953.79
2022-12-04T11:13:28.768Z,953.75
2022-12-04T11:14:30.805Z,953.75
2022-12-04T11:15:32.763Z,953.73
2022-12-04T11:16:34.893Z,953.71
2022-12-04T11:17:36.765Z,953.7
2022-12-04T11:18:38.759Z,953.73
2022-12-04T11:19:40.777Z,953.75
2022-12-04T11:20:46.830Z,953.81
2022-12-04T11:21:44.766Z,953.81
2022-12-04T11:22:46.779Z,953.82
2022-12-04T11:23:48.763Z,953.81
2022-12-04T11:24:50.821Z,953.8
2022-12-04T11:25:52.792Z,953.79
2022-12-04T11:26:54.882Z,953.78
2022-12-04T11:27:56.760Z,953.84
2022-12-04T11:28:58.795Z,953.84
2022-12-04T11:30:01.774Z,953.78
2022-12-04T11:31:03.795Z,953.73
2022-12-04T11:32:07.870Z,953.73
2022-12-04T11:33:08.809Z,953.71
2022-12-04T11:34:10.770Z,953.72
2022-12-04T11:35:12.774Z,953.66
2022-12-04T11:36:14.788Z,953.72
2022-12-04T11:37:16.775Z,953.65
2022-12-04T11:38:18.780Z,953.64
2022-12-04T11:39:20.777Z,953.63
2022-12-04T11:40:22.821Z,953.59
2022-12-04T11:41:24.835Z,953.55
2022-12-04T11:42:49.900Z,953.53
2022-12-04T11:43:49.889Z,953.55
2022-12-04T11:44:49.904Z,953.46
2022-12-04T11:45:49.882Z,953.47
2022-12-04T11:46:49.981Z,953.45
2022-12-04T11:49:49.902Z,953.45
2022-12-04T11:50:49.873Z,953.5
2022-12-04T11:51:49.925Z,953.47
2022-12-04T11:52:49.930Z,953.47
2022-12-04T11:53:50.784Z,953.42
2022-12-04T11:54:52.840Z,953.39
2022-12-04T11:55:54.825Z,953.37
2022-12-04T11:56:56.786Z,953.34
2022-12-04T11:59:49.911Z,953.35
2022-12-04T12:00:50.071Z,953.34
2022-12-04T12:01:54.677Z,953.34
2022-12-04T12:02:50.110Z,953.31
2022-12-04T12:03:49.894Z,953.24
2022-12-04T12:04:49.900Z,953.24
2022-12-04T12:05:49.913Z,953.22
2022-12-04T12:06:49.955Z,953.18
2022-12-04T12:07:49.971Z,953.19
2022-12-04T12:08:49.914Z,953.15
2022-12-04T12:09:49.900Z,953.16
2022-12-04T12:10:49.910Z,953.15
2022-12-04T12:11:50.127Z,953.17
2022-12-04T12:12:49.924Z,953.12
2022-12-04T12:13:49.939Z,953.15
2022-12-04T12:14:49.905Z,953.14
2022-12-04T12:15:49.907Z,953.08
2022-12-04T12:18:57.788Z,953.06
2022-12-04T12:21:03.787Z,953.06
2022-12-04T12:22:06.973Z,953.04
2022-12-04T12:23:08.746Z,953.02
2022-12-04T12:24:10.769Z,953.02
2022-12-04T12:25:12.744Z,952.97
2022-12-04T12:27:49.952Z,952.98
2022-12-04T12:28:49.932Z,953
2022-12-04T12:32:49.948Z,953
2022-12-04T12:33:49.934Z,953.05
2022-12-04T12:34:49.917Z,953
2022-12-04T12:35:49.917Z,953.03
2022-12-04T12:36:49.921Z,953.09
2022-12-04T12:37:50.104Z,953.08
2022-12-04T12:38:49.920Z,953.04
2022-12-04T12:39:49.983Z,952.97
2022-12-04T12:40:49.927Z,952.96
2022-12-04T12:41:49.961Z,952.94
2022-12-04T12:42:53.662Z,952.99
2022-12-04T12:43:49.961Z,952.99
2022-12-04T12:44:49.983Z,952.99
2022-12-04T12:46:49.916Z,952.92
2022-12-04T12:47:49.921Z,952.88
2022-12-04T12:49:49.956Z,952.87
2022-12-04T12:51:28.671Z,952.89
2022-12-04T12:51:49.942Z,952.89
2022-12-04T12:52:49.935Z,952.81
2022-12-04T12:53:50.544Z,952.85
2022-12-04T12:54:52.582Z,952.81
2022-12-04T12:55:54.557Z,952.77
2022-12-04T12:57:04.045Z,952.76
2022-12-04T12:57:59.561Z,952.76
2022-12-04T12:59:03.579Z,952.78
2022-12-04T13:00:05.591Z,952.78
2022-12-04T13:01:07.604Z,952.78
2022-12-04T13:02:09.643Z,952.78
2022-12-04T13:03:12.614Z,952.73
2022-12-04T13:04:14.557Z,952.69
2022-12-04T13:05:16.554Z,952.72
2022-12-04T13:06:18.563Z,952.69
2022-12-04T13:07:20.570Z,952.67
2022-12-04T13:08:22.608Z,952.67
2022-12-04T13:09:28.436Z,952.59
2022-12-04T13:10:28.568Z,952.58
2022-12-04T13:11:30.546Z,952.6
2022-12-04T13:12:32.594Z,952.59
2022-12-04T13:13:35.605Z,952.55
2022-12-04T13:14:37.574Z,952.57
2022-12-04T13:15:39.602Z,952.57
2022-12-04T13:16:41.630Z,952.59
2022-12-04T13:17:49.949Z,952.64
2022-12-04T13:18:49.956Z,952.66
2022-12-04T13:20:49.571Z,952.66
2022-12-04T13:21:51.564Z,952.67
2022-12-04T13:22:53.564Z,952.73
2022-12-04T13:23:55.573Z,952.71